Coeur D'Alene - Pappy Boyington Field
KCOE : now visible

Aeroporto :











RITROVATECI SU...

 
LOGIN :

Iscrizione | Disclaimer

   EN    FR    IT 

 









Sommario :    VFR   VFR Marginale   IFR   IFR Intensivo   IFR Molto Intensivo
Visibilità : 
Base nubi : 
>= 8 km
>= 3000ft
5 / 8 km
1000 / 3000 ft
1500m / 5 km
500 / 1000 ft
800 / 1500m
200 / 500 ft
< 800m
< 200 ft
Simboli :   Temporali  Nebbia  Neve Forte  Precipitazioni Forti  Vento > 20 kt






- Altitudine del aeroporto : 2320 ft


KCOE - Coeur D'Alene - Pappy Boyington Field

ULTIMO METAR :
  • 211056Z AUTO 03014KT 10SM 22/12 A3005 RMK AO2 SLP165 T02220122 PNO $

METARs OBSOLETI :
  • 210956Z AUTO 04010KT 10SM 22/12 A3005 RMK AO2 SLP166 T02170122 PNO $
  • 210856Z AUTO 08009KT 10SM 22/12 A3006 RMK AO2 SLP169 6//// T02220122 51001 PNO $
  • 210756Z AUTO 05006KT 10SM 22/12 A3006 RMK AO2 SLP171 T02170117 403670133 PNO $
  • 210656Z AUTO 07004KT 10SM 23/14 A3006 RMK AO2 SLP172 T02330144 PNO $

TAF KCOE
Valido dal 21 a 06 ore il 22 a 06 ore UTC


210520Z 2106/2206 05005KT P6SM SKC
FM211200 06013G20KT P6SM SKC
FM212200 04008KT P6SM SKC
FIR KZSE / America del Nord



MetMap, La meteo Aeronautica in un colpo d'occhio ! - Copyright ORBIFLY Dicembre 2007 - Disclaimer

ORBIFLY MET'MAP TEAM :

Programmazione e sviluppo : Alexandra Zaïnal
Concezione : Baudouin d'Aumeries
Supporto tecnico e logistico : Manuel Goepfert
Aiuto : Marc-Olivier Méhu
Aiuto per la traduzione : Arnaldo La Scala




FONTI E CREDITI :

   NOAA       Earth
Advisory